Time;durP1;ratioP1;P1;durP2;ratioP2;P2;SDS_P1;SDS_P2;PMS_P1;PMS_P2;Temp;Humidity;BMP_temperature;BMP_pressure;BME280_temperature;BME280_humidity;BME280_pressure;Samples;Min_cycle;Max_cycle;Signal;HPM_P1;HPM_P2
2023/12/04 00:01:48;;;;;;;4.60;3.55;;;;;;;-6.54;66.33;97317.88;6228176;28;20045;-70
2023/12/04 00:04:52;;;;;;;5.82;4.07;;;;;;;-6.54;66.65;97317.88;6245433;28;20042;-69
2023/12/04 00:07:54;;;;;;;5.85;4.10;;;;;;;-6.45;66.78;97329.94;6245571;28;20419;-70
2023/12/04 00:10:55;;;;;;;5.07;3.83;;;;;;;-6.49;67.29;97326.47;6245083;28;20056;-70
2023/12/04 00:13:57;;;;;;;6.93;4.22;;;;;;;-6.66;67.54;97323.75;6245470;28;20527;-70
2023/12/04 00:16:58;;;;;;;6.22;4.65;;;;;;;-6.68;67.09;97325.47;6245220;28;20550;-69
2023/12/04 00:20:04;;;;;;;5.13;4.15;;;;;;;-6.75;67.67;97322.81;6228309;28;20084;-69
2023/12/04 00:23:09;;;;;;;6.18;3.72;;;;;;;-6.48;67.16;97317.97;6245774;28;20049;-69
2023/12/04 00:26:15;;;;;;;6.18;4.28;;;;;;;-6.56;67.61;97312.78;6245436;28;20057;-69
2023/12/04 00:29:19;;;;;;;5.30;3.90;;;;;;;-6.78;68.57;97314.25;6245634;28;20045;-70
2023/12/04 00:32:21;;;;;;;5.90;4.10;;;;;;;-6.84;68.72;97313.34;6245177;28;20042;-70
2023/12/04 00:35:25;;;;;;;6.93;3.80;;;;;;;-6.66;68.51;97307.53;6244937;28;20049;-70
2023/12/04 00:38:27;;;;;;;6.38;4.65;;;;;;;-6.77;68.28;97317.66;6244645;28;20076;-69
2023/12/04 00:41:28;;;;;;;5.63;4.30;;;;;;;-6.79;69.00;97312.56;6244293;28;20056;-71
2023/12/04 00:44:29;;;;;;;8.57;4.60;;;;;;;-6.80;69.24;97310.81;6244817;28;20639;-69
2023/12/04 00:47:31;;;;;;;4.85;3.90;;;;;;;-6.79;69.16;97312.56;6244314;28;20084;-69
2023/12/04 00:50:35;;;;;;;6.50;4.72;;;;;;;-6.78;69.04;97306.59;6228203;28;20042;-70
2023/12/04 00:53:44;;;;;;;6.00;4.07;;;;;;;-6.82;69.57;97307.41;6270174;28;20425;-70
2023/12/04 00:56:45;;;;;;;7.63;5.00;;;;;;;-6.77;69.84;97290.38;6293768;28;20059;-70
2023/12/04 00:59:46;;;;;;;6.30;4.07;;;;;;;-6.69;69.50;97287.03;6293446;28;20147;-70
2023/12/04 01:02:48;;;;;;;7.28;4.50;;;;;;;-6.64;69.08;97275.16;6293762;28;20060;-70
2023/12/04 01:05:49;;;;;;;7.20;4.05;;;;;;;-6.75;68.98;97271.63;6293644;28;20044;-69
2023/12/04 01:08:57;;;;;;;6.32;3.90;;;;;;;-6.80;68.94;97259.63;6276209;28;20059;-70
2023/12/04 01:12:01;;;;;;;7.22;4.90;;;;;;;-6.73;68.54;97275.94;6268510;28;20048;-70
2023/12/04 01:15:03;;;;;;;4.63;3.78;;;;;;;-6.69;69.07;97266.56;6269440;28;20033;-70
2023/12/04 01:18:10;;;;;;;5.35;4.10;;;;;;;-6.75;68.86;97263.97;6269464;28;20045;-70
2023/12/04 01:21:14;;;;;;;7.20;4.80;;;;;;;-6.78;69.67;97252.84;6269069;28;20056;-70
2023/12/04 01:24:15;;;;;;;7.90;5.05;;;;;;;-6.89;69.83;97254.44;6269142;28;20063;-70
2023/12/04 01:27:19;;;;;;;7.28;4.43;;;;;;;-6.90;70.32;97262.13;6268854;28;20099;-70
2023/12/04 01:30:24;;;;;;;4.70;3.42;;;;;;;-6.82;70.62;97251.13;6269271;28;20525;-71
2023/12/04 01:33:25;;;;;;;8.00;5.18;;;;;;;-6.74;69.55;97243.50;6268872;28;20056;-70
2023/12/04 01:36:30;;;;;;;8.70;5.55;;;;;;;-6.89;69.93;97233.97;6269231;28;20418;-70
2023/12/04 01:39:31;;;;;;;7.68;5.28;;;;;;;-6.89;70.49;97236.53;6268928;28;20052;-70
2023/12/04 01:42:35;;;;;;;;;;;;;;;-6.83;69.65;97223.78;6269794;28;20041;-69
2023/12/04 01:45:37;;;;;;;10.00;5.15;;;;;;;-6.81;70.39;97232.34;6269297;28;19983;-69
2023/12/04 01:48:40;;;;;;;7.68;5.45;;;;;;;-6.91;70.74;97225.41;6269145;28;20506;-70
2023/12/04 01:51:48;;;;;;;7.05;4.78;;;;;;;-6.78;70.32;97217.03;6267779;28;20053;-71
2023/12/04 01:54:53;;;;;;;10.20;6.07;;;;;;;-6.85;70.14;97215.28;6244204;28;20057;-71
2023/12/04 01:57:58;;;;;;;7.50;5.22;;;;;;;-6.79;70.39;97210.19;6243487;28;20057;-71
2023/12/04 02:01:03;;;;;;;8.30;5.03;;;;;;;-6.86;70.23;97208.41;6226338;28;20533;-71
2023/12/04 02:04:04;;;;;;;9.05;4.90;;;;;;;-6.77;70.30;97203.38;6243672;28;20053;-71
2023/12/04 02:07:09;;;;;;;7.13;4.78;;;;;;;-6.70;70.16;97201.75;6242804;28;20383;-71
2023/12/04 02:10:13;;;;;;;7.10;4.60;;;;;;;-6.62;69.82;97186.47;6244054;28;20049;-71
2023/12/04 02:13:18;;;;;;;7.47;5.15;;;;;;;-6.64;69.80;97195.81;6226185;28;20049;-71
2023/12/04 02:16:26;;;;;;;5.78;4.03;;;;;;;-6.84;70.48;97181.16;6243926;28;20059;-71
2023/12/04 02:19:31;;;;;;;5.72;4.10;;;;;;;-6.77;70.33;97172.66;6244312;28;20037;-71
2023/12/04 02:22:35;;;;;;;5.00;3.00;;;;;;;-6.86;70.44;97176.88;6248557;28;20038;-71
2023/12/04 02:25:41;;;;;;;4.40;3.40;;;;;;;-6.86;69.88;97152.13;6248600;28;20093;-70
2023/12/04 02:28:54;;;;;;;5.18;3.80;;;;;;;-6.89;70.58;97154.66;6247933;28;20384;-71
2023/12/04 02:31:58;;;;;;;6.85;4.28;;;;;;;-6.95;70.42;97152.06;6247028;28;21138;-72
2023/12/04 02:35:04;;;;;;;6.22;3.45;;;;;;;-6.84;70.72;97147.03;6248049;28;20044;-70
2023/12/04 02:38:09;;;;;;;9.43;5.65;;;;;;;-6.99;70.13;97145.22;6247766;28;20135;-71
2023/12/04 02:41:14;;;;;;;7.10;4.80;;;;;;;-7.12;71.47;97148.53;6248305;28;20037;-71
2023/12/04 02:44:15;;;;;;;5.97;3.92;;;;;;;-6.95;70.85;97139.28;6248260;28;20396;-72
2023/12/04 02:47:20;;;;;;;9.05;5.47;;;;;;;-7.00;70.42;97143.50;6247549;28;20561;-72
2023/12/04 02:50:24;;;;;;;7.88;4.88;;;;;;;-7.07;71.26;97137.47;6247801;28;20049;-71
2023/12/04 02:53:29;;;;;;;7.75;4.78;;;;;;;-7.15;71.85;97144.22;6246984;28;20499;-71
2023/12/04 02:56:35;;;;;;;4.18;2.92;;;;;;;-6.83;71.13;97131.69;6214567;28;20056;-70
2023/12/04 02:59:40;;;;;;;;;;;;;;;-6.98;70.97;97126.47;6247822;28;20041;-71
2023/12/04 03:02:46;;;;;;;6.82;4.65;;;;;;;-7.16;71.51;97127.19;6229442;28;19986;-71
2023/12/04 03:05:50;;;;;;;8.48;4.65;;;;;;;-7.17;72.05;97109.25;6246892;28;20057;-72
2023/12/04 03:08:52;;;;;;;9.20;5.22;;;;;;;-7.10;71.22;97108.47;6246094;28;20056;-72
2023/12/04 03:11:59;;;;;;;7.75;5.38;;;;;;;-7.17;71.66;97106.69;6247231;28;20045;-71
2023/12/04 03:15:02;;;;;;;5.82;3.63;;;;;;;-7.00;71.75;97100.00;6229577;28;20565;-71
2023/12/04 03:18:06;;;;;;;5.45;3.80;;;;;;;-7.20;71.89;97081.09;6229373;28;20404;-72
2023/12/04 03:21:10;;;;;;;;;;;;;;;-7.10;71.46;97085.47;6247574;28;20045;-72
2023/12/04 03:24:11;;;;;;;6.90;5.05;;;;;;;-7.05;71.90;97081.22;6246610;28;20018;-72
2023/12/04 03:27:18;;;;;;;7.68;5.15;;;;;;;-7.19;72.54;97075.13;6246892;28;20511;-72
2023/12/04 03:30:23;;;;;;;10.10;5.57;;;;;;;-7.02;71.97;97089.78;6246159;28;20061;-72
2023/12/04 03:33:29;;;;;;;8.65;4.93;;;;;;;-7.12;72.66;97076.91;6245727;28;20037;-73
2023/12/04 03:36:33;;;;;;;7.07;4.75;;;;;;;-7.12;72.72;97077.75;6246691;28;20041;-71
2023/12/04 03:39:40;;;;;;;12.68;6.57;;;;;;;-7.05;73.09;97076.09;6246756;28;20067;-71
2023/12/04 03:42:45;;;;;;;8.48;4.78;;;;;;;-6.95;73.63;97075.31;6245506;28;20147;-72
2023/12/04 03:45:49;;;;;;;10.13;4.90;;;;;;;-6.94;72.70;97071.91;6228876;28;20049;-72
2023/12/04 03:48:51;;;;;;;6.50;4.50;;;;;;;-6.71;72.53;97068.66;6245442;28;20049;-71
2023/12/04 03:51:52;;;;;;;8.27;4.78;;;;;;;-6.82;72.91;97059.22;6245425;28;20068;-72
2023/12/04 03:54:57;;;;;;;10.10;4.50;;;;;;;-6.72;72.87;97046.47;6269064;28;20052;-71
2023/12/04 03:58:01;;;;;;;4.35;3.08;;;;;;;-6.54;72.31;97036.31;6270625;28;20049;-72
2023/12/04 04:01:03;;;;;;;14.57;5.82;;;;;;;-6.82;73.04;97020.84;6270367;28;20042;-72
2023/12/04 04:04:09;;;;;;;6.35;3.92;;;;;;;-6.59;72.28;97032.91;6271464;28;20059;-72
2023/12/04 04:07:15;;;;;;;9.00;4.35;;;;;;;-6.53;72.74;97025.25;6270428;28;20048;-72
2023/12/04 04:10:17;;;;;;;5.55;4.30;;;;;;;-6.56;72.70;96994.53;6270110;28;20395;-73
2023/12/04 04:13:22;;;;;;;3.75;2.85;;;;;;;-6.72;72.64;97001.25;6270749;28;20414;-72
2023/12/04 04:16:26;;;;;;;6.47;3.90;;;;;;;-6.60;72.68;97015.81;6269088;28;20041;-71
2023/12/04 04:19:36;;;;;;;7.45;4.00;;;;;;;-6.67;72.88;96993.63;6269361;28;20387;-74
2023/12/04 04:22:41;;;;;;;6.95;3.10;;;;;;;-6.62;72.77;96981.72;6269111;28;20098;-72
2023/12/04 04:25:42;;;;;;;6.60;4.43;;;;;;;-6.65;73.50;96997.91;6270036;28;20055;-72
2023/12/04 04:28:48;;;;;;;6.57;3.70;;;;;;;-6.52;73.39;96996.22;6270369;28;20437;-72
2023/12/04 04:31:49;;;;;;;;;;;;;;;-6.28;72.74;96999.72;6270087;28;20059;-72
2023/12/04 04:34:58;;;;;;;7.32;4.72;;;;;;;-6.63;73.49;96967.19;6270048;28;19920;-71
2023/12/04 04:37:59;;;;;;;7.47;4.55;;;;;;;-6.49;73.78;96970.66;6268121;28;20399;-72
2023/12/04 04:41:04;;;;;;;6.05;3.70;;;;;;;-6.45;73.66;96980.06;6269595;28;20059;-72
2023/12/04 04:44:10;;;;;;;8.98;5.47;;;;;;;-6.41;73.71;96958.72;6269808;28;20048;-73
2023/12/04 04:47:14;;;;;;;6.82;4.22;;;;;;;-6.22;73.32;96989.53;6268931;28;20414;-73
2023/12/04 04:50:18;;;;;;;6.55;4.95;;;;;;;-6.29;73.17;96974.97;6269579;28;20041;-72
2023/12/04 04:53:27;;;;;;;11.80;6.75;;;;;;;-6.15;73.19;96979.28;6257643;28;20053;-72
2023/12/04 04:56:34;;;;;;;5.93;3.63;;;;;;;-6.21;73.58;96970.72;6244851;28;20045;-73
2023/12/04 04:59:40;;;;;;;7.78;4.78;;;;;;;-6.37;73.84;96957.03;6245122;28;20053;-72
2023/12/04 05:02:47;;;;;;;11.30;6.22;;;;;;;-6.20;73.91;96959.63;6245072;28;20045;-72
2023/12/04 05:05:55;;;;;;;7.45;5.38;;;;;;;-6.22;73.65;96940.88;6244693;28;20187;-71
2023/12/04 05:08:57;;;;;;;8.27;4.55;;;;;;;-6.15;74.45;96932.31;6244384;28;20045;-72
2023/12/04 05:12:01;;;;;;;7.97;5.13;;;;;;;-6.01;73.50;96922.94;6244853;28;20507;-73
2023/12/04 05:15:05;;;;;;;11.40;5.65;;;;;;;-5.94;73.47;96911.88;6244835;28;20053;-74
2023/12/04 05:18:06;;;;;;;12.75;6.47;;;;;;;-6.00;72.82;96904.19;6243761;28;20053;-73
2023/12/04 05:21:15;;;;;;;7.10;4.10;;;;;;;-6.12;72.97;96870.84;6211485;28;20049;-73
2023/12/04 05:24:24;;;;;;;10.15;5.57;;;;;;;-5.88;73.16;96895.59;6244359;28;20049;-72
2023/12/04 05:27:34;;;;;;;10.77;5.43;;;;;;;-5.92;73.70;96893.88;6226914;28;20045;-72
2023/12/04 05:30:38;;;;;;;9.18;5.32;;;;;;;-5.92;73.52;96879.34;6226968;28;20052;-74
2023/12/04 05:33:42;;;;;;;;;;;;;;;-5.97;73.53;96881.13;6244410;28;20049;-72
2023/12/04 05:36:48;;;;;;;9.68;5.57;;;;;;;-5.99;74.02;96882.81;6243512;28;19927;-73
2023/12/04 05:39:57;;;;;;;9.77;4.60;;;;;;;-5.90;73.49;96867.41;6244386;28;20041;-75
2023/12/04 05:43:04;;;;;;;7.43;4.97;;;;;;;-5.94;73.81;96875.16;6244464;28;20439;-73
2023/12/04 05:46:14;;;;;;;11.32;5.72;;;;;;;-5.90;74.08;96887.91;6244279;28;20037;-73
2023/12/04 05:49:18;;;;;;;10.80;5.57;;;;;;;-5.69;74.45;96888.75;6243761;28;20060;-73
2023/12/04 05:52:24;;;;;;;10.75;5.05;;;;;;;-5.72;74.72;96878.50;6226715;28;20057;-73
2023/12/04 05:55:29;;;;;;;10.82;6.00;;;;;;;-5.57;74.40;96875.94;6228924;28;20056;-73
2023/12/04 05:58:33;;;;;;;11.00;5.60;;;;;;;-5.62;74.15;96862.25;6248361;28;20550;-72
2023/12/04 06:01:37;;;;;;;11.43;6.05;;;;;;;-5.61;74.77;96858.84;6248913;28;20045;-73
2023/12/04 06:04:41;;;;;;;8.30;5.20;;;;;;;-5.34;73.74;96841.69;6231122;28;20068;-72
2023/12/04 06:07:43;;;;;;;;;;;;;;;-5.29;73.88;96839.97;6248105;28;20156;-72
2023/12/04 06:10:47;;;;;;;9.87;5.57;;;;;;;-5.39;73.92;96833.16;6249140;28;20382;-73
2023/12/04 06:13:50;;;;;;;6.95;4.13;;;;;;;-5.41;74.57;96830.59;6248386;28;20144;-73
2023/12/04 06:16:54;;;;;;;7.95;5.65;;;;;;;-5.38;74.57;96817.75;6247794;28;20132;-73
2023/12/04 06:19:59;;;;;;;5.82;3.47;;;;;;;-5.17;73.97;96798.88;6248321;28;20110;-73
2023/12/04 06:23:03;;;;;;;6.78;4.53;;;;;;;-5.15;73.90;96792.03;6248603;28;20067;-74
2023/12/04 06:26:09;;;;;;;8.90;6.28;;;;;;;-5.25;74.33;96774.97;6231352;28;20518;-74
2023/12/04 06:29:10;;;;;;;10.68;5.75;;;;;;;-5.16;74.57;96774.91;6248261;28;20077;-73
2023/12/04 06:32:15;;;;;;;8.02;4.35;;;;;;;-5.14;75.23;96765.50;6248609;28;20782;-75
2023/12/04 06:35:19;;;;;;;5.82;3.60;;;;;;;-4.84;74.55;96751.66;6231187;28;20041;-72
2023/12/04 06:38:25;;;;;;;9.20;5.63;;;;;;;-4.72;73.91;96740.47;6247333;28;20060;-73
2023/12/04 06:41:29;;;;;;;7.63;5.07;;;;;;;-4.60;74.33;96735.22;6248388;28;20045;-72
2023/12/04 06:44:31;;;;;;;9.20;5.15;;;;;;;-4.69;74.46;96714.75;6247837;28;20360;-72
2023/12/04 06:47:35;;;;;;;10.55;5.85;;;;;;;-4.77;74.92;96721.66;6247837;28;20053;-72
2023/12/04 06:50:40;;;;;;;9.05;5.68;;;;;;;-4.68;75.12;96721.59;6247621;28;20055;-73
2023/12/04 06:53:44;;;;;;;7.82;5.35;;;;;;;-4.67;75.52;96725.00;6248065;28;20061;-72
2023/12/04 06:56:51;;;;;;;7.93;5.45;;;;;;;-4.59;75.71;96698.41;6247587;28;20049;-73
2023/12/04 06:59:57;;;;;;;10.13;6.07;;;;;;;-4.54;76.25;96691.53;6247761;28;20429;-72
2023/12/04 07:03:02;;;;;;;5.78;3.60;;;;;;;-4.38;76.49;96688.84;6246170;28;20125;-73
2023/12/04 07:06:06;;;;;;;6.65;4.25;;;;;;;-4.11;76.27;96683.41;6246206;28;20419;-73
2023/12/04 07:09:13;;;;;;;5.75;3.55;;;;;;;-3.95;76.54;96688.41;6246884;28;20144;-73
2023/12/04 07:12:14;;;;;;;6.38;4.60;;;;;;;-3.81;76.37;96681.38;6246348;28;20049;-72
2023/12/04 07:15:24;;;;;;;8.35;4.70;;;;;;;-3.85;76.56;96666.84;6246167;28;20064;-72
2023/12/04 07:18:28;;;;;;;6.82;4.75;;;;;;;-3.88;76.72;96643.75;6247079;28;20407;-73
2023/12/04 07:21:32;;;;;;;;;;;;;;;-3.66;76.10;96663.19;6228996;28;20427;-73
2023/12/04 07:24:36;;;;;;;7.22;4.65;;;;;;;-3.63;76.76;96670.03;6246565;28;20051;-73
2023/12/04 07:27:38;;;;;;;;;;;;;;;-3.54;76.62;96657.03;6246388;28;20053;-73
2023/12/04 07:30:46;;;;;;;5.57;4.03;;;;;;;-3.44;77.15;96650.06;6246764;28;20299;-73
2023/12/04 07:33:48;;;;;;;8.55;4.57;;;;;;;-3.45;77.19;96627.81;6246697;28;20045;-73
2023/12/04 07:36:52;;;;;;;8.90;5.05;;;;;;;-3.39;77.51;96636.28;6246658;28;20052;-73
2023/12/04 07:39:56;;;;;;;4.60;3.55;;;;;;;-3.29;77.26;96624.13;6246757;28;20045;-72
2023/12/04 07:43:03;;;;;;;8.77;5.10;;;;;;;-3.28;77.61;96618.13;6246479;28;20037;-72
2023/12/04 07:46:10;;;;;;;7.70;4.90;;;;;;;-3.32;78.23;96600.16;6246525;28;20491;-73
2023/12/04 07:49:11;;;;;;;6.15;4.32;;;;;;;-3.19;78.63;96569.09;6246350;28;20041;-72
2023/12/04 07:52:18;;;;;;;8.02;5.28;;;;;;;-3.00;77.90;96563.63;6246073;28;20056;-73
2023/12/04 07:55:21;;;;;;;5.38;4.15;;;;;;;-3.17;79.00;96562.19;6246097;28;20045;-73
2023/12/04 07:58:30;;;;;;;7.38;4.57;;;;;;;-3.06;78.83;96576.59;6245867;28;20042;-73
2023/12/04 08:01:39;;;;;;;4.57;2.92;;;;;;;-3.14;79.29;96571.59;6245741;28;20053;-72
2023/12/04 08:04:43;;;;;;;5.75;4.50;;;;;;;-3.07;79.23;96567.19;6245953;28;20045;-73
2023/12/04 08:07:45;;;;;;;7.15;4.70;;;;;;;-3.02;79.50;96565.41;6244920;28;20076;-72
2023/12/04 08:10:52;;;;;;;6.38;4.78;;;;;;;-2.91;79.43;96563.50;6246020;28;20042;-73
2023/12/04 08:13:55;;;;;;;7.63;4.93;;;;;;;-2.97;79.98;96537.84;6245830;28;20045;-73
2023/12/04 08:17:01;;;;;;;5.75;4.47;;;;;;;-2.68;79.07;96528.78;6244704;28;20542;-74
2023/12/04 08:20:06;;;;;;;5.50;4.28;;;;;;;-2.73;79.46;96527.09;6245544;28;20045;-72
2023/12/04 08:23:10;;;;;;;5.53;3.92;;;;;;;-2.68;79.85;96536.50;6245609;28;20045;-74
2023/12/04 08:26:15;;;;;;;5.43;4.03;;;;;;;-2.50;79.88;96538.72;6245863;28;20156;-73
2023/12/04 08:29:22;;;;;;;2.78;1.75;;;;;;;-2.43;79.28;96534.31;6245217;28;20430;-72
2023/12/04 08:32:29;;;;;;;4.53;3.00;;;;;;;-2.44;79.25;96538.59;6244411;28;20104;-73
2023/12/04 08:35:31;;;;;;;3.80;2.72;;;;;;;-2.28;78.93;96518.53;6244506;28;20514;-73
2023/12/04 08:38:39;;;;;;;5.18;3.13;;;;;;;-2.35;79.62;96512.69;6245191;28;20057;-74
2023/12/04 08:41:41;;;;;;;3.10;2.70;;;;;;;-2.37;79.66;96498.97;6244757;28;20049;-74
2023/12/04 08:44:51;;;;;;;3.20;2.90;;;;;;;-2.30;79.77;96472.16;6245130;28;20064;-73
2023/12/04 08:47:58;;;;;;;3.60;2.63;;;;;;;-2.04;80.13;96476.81;6245026;28;20053;-74
2023/12/04 08:50:59;;;;;;;2.90;1.92;;;;;;;-1.97;80.04;96462.03;6244819;28;20038;-74
2023/12/04 08:54:01;;;;;;;4.43;3.35;;;;;;;-1.92;80.60;96444.75;6244880;28;20529;-73
2023/12/04 08:57:02;;;;;;;3.75;3.08;;;;;;;-1.90;80.42;96427.47;6244838;28;20045;-74
2023/12/04 09:00:08;;;;;;;3.33;3.03;;;;;;;-1.74;80.06;96437.47;6227562;28;20049;-74
2023/12/04 09:03:19;;;;;;;3.58;2.80;;;;;;;-1.68;80.21;96419.25;6244844;28;20052;-73
2023/12/04 09:06:21;;;;;;;4.30;3.50;;;;;;;-1.57;80.12;96401.78;6244905;28;20045;-73
2023/12/04 09:09:28;;;;;;;3.58;2.97;;;;;;;-1.59;80.39;96380.31;6227209;28;20045;-73
2023/12/04 09:12:29;;;;;;;3.58;2.83;;;;;;;-1.51;80.54;96393.88;6243882;28;20045;-73
2023/12/04 09:15:39;;;;;;;4.50;3.42;;;;;;;-1.60;80.19;96388.97;6244645;28;20110;-73
2023/12/04 09:18:40;;;;;;;4.88;3.38;;;;;;;-1.58;80.53;96389.78;6227048;28;20041;-72
2023/12/04 09:21:44;;;;;;;5.15;3.65;;;;;;;-1.61;81.13;96366.63;6210044;28;20542;-73
2023/12/04 09:24:48;;;;;;;4.03;2.53;;;;;;;-1.45;81.11;96367.91;6244421;28;20045;-74
2023/12/04 09:27:50;;;;;;;5.20;3.35;;;;;;;-1.38;80.59;96351.41;6244249;28;20057;-72
2023/12/04 09:30:54;;;;;;;5.50;4.07;;;;;;;-1.25;80.47;96348.50;6243072;28;20427;-73
2023/12/04 09:33:58;;;;;;;5.00;3.70;;;;;;;-1.36;80.15;96347.06;6244016;28;20049;-74
2023/12/04 09:37:05;;;;;;;5.07;4.28;;;;;;;-1.28;80.84;96343.41;6244151;28;20505;-74
2023/12/04 09:40:09;;;;;;;8.45;5.22;;;;;;;-1.32;81.11;96354.72;6244225;28;20469;-72
2023/12/04 09:43:14;;;;;;;8.35;5.32;;;;;;;-1.29;81.06;96362.38;6244105;28;20095;-74
2023/12/04 09:46:20;;;;;;;9.43;4.80;;;;;;;-1.32;81.63;96357.31;6244383;28;20684;-74
2023/12/04 09:49:29;;;;;;;11.68;6.40;;;;;;;-1.20;81.33;96356.97;6242973;28;20367;-74
2023/12/04 09:52:36;;;;;;;15.68;6.10;;;;;;;-1.20;81.17;96344.06;6244035;28;20049;-74
2023/12/04 09:55:38;;;;;;;7.07;4.07;;;;;;;-1.27;81.98;96316.72;6244313;28;20569;-75
2023/12/04 09:58:44;;;;;;;9.13;5.03;;;;;;;-1.12;81.76;96324.03;6243629;28;20418;-73
2023/12/04 10:01:49;;;;;;;7.90;5.07;;;;;;;-1.05;81.64;96351.38;6243149;28;20131;-74
2023/12/04 10:04:53;;;;;;;10.02;6.03;;;;;;;-1.16;82.41;96335.31;6244194;28;20575;-74
2023/12/04 10:07:58;;;;;;;8.18;5.82;;;;;;;-0.98;80.92;96327.09;6242980;28;20053;-74
2023/12/04 10:11:02;;;;;;;13.45;7.88;;;;;;;-0.86;81.66;96335.38;6226923;28;20041;-73
2023/12/04 10:14:13;;;;;;;;;;;;;;;-0.79;81.46;96327.41;6244563;28;20041;-73
2023/12/04 10:17:17;;;;;;;12.07;6.30;;;;;;;-1.00;81.79;96292.72;6244184;28;19964;-73
2023/12/04 10:20:26;;;;;;;11.00;6.70;;;;;;;-0.99;82.85;96294.41;6243807;28;20045;-74
2023/12/04 10:23:42;;;;;;;12.38;7.13;;;;;;;-0.95;82.79;96290.00;6243571;28;20042;-74
2023/12/04 10:26:53;;;;;;;12.57;7.10;;;;;;;-1.04;82.83;96301.44;6243529;28;20045;-74
2023/12/04 10:30:02;;;;;;;6.95;4.80;;;;;;;-0.94;83.46;96283.94;6243872;28;20049;-73
2023/12/04 10:33:08;;;;;;;13.90;8.73;;;;;;;-0.84;83.38;96281.94;6242861;28;20064;-74
2023/12/04 10:36:13;;;;;;;10.68;5.35;;;;;;;-0.77;83.23;96276.53;6242393;28;20053;-74
2023/12/04 10:39:20;;;;;;;12.45;5.88;;;;;;;-0.70;82.75;96279.81;6243316;28;20045;-74
2023/12/04 10:42:31;;;;;;;16.17;8.80;;;;;;;-0.72;82.79;96277.25;6246862;28;20048;-74
2023/12/04 10:45:36;;;;;;;12.68;7.50;;;;;;;-0.76;83.19;96254.16;6230761;28;20042;-74
2023/12/04 10:48:44;;;;;;;8.10;5.95;;;;;;;-0.72;83.59;96240.25;6247965;28;20430;-75
2023/12/04 10:51:49;;;;;;;16.65;9.98;;;;;;;-0.68;83.21;96227.19;6247750;28;20057;-73
2023/12/04 10:54:54;;;;;;;13.75;7.53;;;;;;;-0.67;84.04;96233.19;6247036;28;20057;-74
2023/12/04 10:58:03;;;;;;;17.55;9.52;;;;;;;-0.50;83.40;96220.59;6247829;28;20046;-74
2023/12/04 11:01:11;;;;;;;8.18;4.82;;;;;;;-0.30;83.80;96190.69;6247546;28;20454;-74
2023/12/04 11:04:22;;;;;;;13.88;9.23;;;;;;;-0.22;82.91;96199.03;6247538;28;20128;-75
2023/12/04 11:07:36;;;;;;;17.75;8.55;;;;;;;-0.33;83.04;96206.28;6247451;28;20398;-73
2023/12/04 11:11:03;;;;;;;17.88;7.93;;;;;;;-0.37;84.01;96194.34;6247274;28;20136;-73
2023/12/04 11:14:10;;;;;;;10.25;6.68;;;;;;;-0.31;83.89;96201.91;6246641;28;20423;-74
2023/12/04 11:17:19;;;;;;;14.25;8.43;;;;;;;-0.33;84.38;96217.47;6246862;28;20045;-74
2023/12/04 11:20:27;;;;;;;16.52;8.23;;;;;;;-0.20;84.16;96220.50;6247011;28;20527;-74
2023/12/04 11:23:33;;;;;;;13.88;6.55;;;;;;;-0.22;84.06;96226.63;6245943;28;20056;-74
2023/12/04 11:26:40;;;;;;;25.80;9.02;;;;;;;0.02;83.99;96232.72;6246805;28;20045;-73
2023/12/04 11:29:46;;;;;;;12.45;5.85;;;;;;;0.08;84.15;96227.34;6246080;28;20523;-75
2023/12/04 11:32:51;;;;;;;27.13;9.70;;;;;;;0.05;84.24;96222.28;6245976;28;20042;-74
2023/12/04 11:36:09;;;;;;;30.45;10.10;;;;;;;0.03;83.96;96224.06;6246810;28;20037;-74
2023/12/04 11:39:13;;;;;;;29.00;11.32;;;;;;;0.15;84.28;96213.31;6246221;28;20049;-73
2023/12/04 11:42:27;;;;;;;31.98;9.85;;;;;;;0.05;84.51;96201.56;6246430;28;20056;-73
2023/12/04 11:45:42;;;;;;;9.23;5.40;;;;;;;-0.02;84.58;96201.78;6245736;28;20049;-73
2023/12/04 11:48:47;;;;;;;38.85;10.60;;;;;;;0.06;84.96;96203.25;6246633;28;20422;-73
2023/12/04 11:51:51;;;;;;;16.67;6.72;;;;;;;0.21;84.93;96203.59;6245629;28;20511;-74
2023/12/04 11:54:59;;;;;;;53.75;11.95;;;;;;;0.29;84.51;96211.09;6244694;28;20076;-73
2023/12/04 11:58:11;;;;;;;53.05;11.75;;;;;;;0.18;85.45;96208.88;6245277;28;20053;-73
2023/12/04 12:01:13;;;;;;;42.00;10.52;;;;;;;0.24;84.87;96202.63;6245111;28;20045;-74
2023/12/04 12:04:18;;;;;;;46.15;10.23;;;;;;;0.24;84.99;96192.28;6228801;28;20049;-71
2023/12/04 12:07:24;;;;;;;13.18;5.97;;;;;;;0.35;85.27;96179.81;6245476;28;20046;-73
2023/12/04 12:10:31;;;;;;;61.60;14.43;;;;;;;0.42;84.64;96173.50;6245805;28;20054;-74
2023/12/04 12:13:35;;;;;;;47.40;10.57;;;;;;;0.25;85.74;96149.13;6245437;28;20049;-74
2023/12/04 12:16:39;;;;;;;34.00;10.38;;;;;;;0.35;85.37;96143.59;6245403;28;20053;-73
2023/12/04 12:19:40;;;;;;;42.05;10.00;;;;;;;0.35;85.81;96135.81;6244338;28;20155;-74
2023/12/04 12:22:48;;;;;;;23.40;8.05;;;;;;;0.47;85.49;96150.06;6245484;28;20037;-74
2023/12/04 12:25:54;;;;;;;29.85;8.80;;;;;;;0.52;85.54;96129.19;6245318;28;20053;-74
2023/12/04 12:28:58;;;;;;;24.92;8.30;;;;;;;0.47;86.25;96133.69;6227295;28;20053;-74
2023/12/04 12:32:03;;;;;;;18.65;6.55;;;;;;;0.47;86.24;96142.28;6244607;28;20045;-73
2023/12/04 12:35:04;;;;;;;13.10;5.68;;;;;;;0.66;86.25;96152.81;6243840;28;20099;-73
2023/12/04 12:38:09;;;;;;;13.57;6.18;;;;;;;0.62;86.31;96151.22;6245300;28;20041;-73
2023/12/04 12:41:16;;;;;;;11.90;6.75;;;;;;;0.62;85.91;96159.00;6244192;28;20041;-74
2023/12/04 12:44:24;;;;;;;13.15;6.53;;;;;;;0.71;86.40;96153.50;6245025;28;20054;-71
2023/12/04 12:47:30;;;;;;;10.65;5.75;;;;;;;0.78;86.36;96141.16;6244806;28;20045;-72
2023/12/04 12:50:38;;;;;;;9.27;5.35;;;;;;;0.79;86.52;96150.59;6244874;28;20052;-72
2023/12/04 12:53:44;;;;;;;10.10;5.78;;;;;;;0.78;86.60;96131.63;6248133;28;20052;-71
2023/12/04 12:56:48;;;;;;;8.13;4.18;;;;;;;0.80;86.84;96137.59;6268617;28;20056;-72
2023/12/04 12:59:50;;;;;;;10.32;6.40;;;;;;;0.75;86.93;96123.97;6267544;28;20476;-71
2023/12/04 13:02:54;;;;;;;10.05;5.53;;;;;;;0.95;87.00;96132.75;6269513;28;20040;-71
2023/12/04 13:05:58;;;;;;;4.30;3.10;;;;;;;1.11;86.59;96126.06;6268669;28;20048;-71
2023/12/04 13:09:06;;;;;;;8.25;5.60;;;;;;;1.08;86.41;96113.22;6268474;28;20052;-71
2023/12/04 13:12:11;;;;;;;4.68;3.42;;;;;;;1.28;86.73;96126.22;6269130;28;20593;-70
2023/12/04 13:15:16;;;;;;;5.32;2.95;;;;;;;1.38;86.20;96123.25;6268801;28;20127;-70
2023/12/04 13:18:17;;;;;;;5.00;3.90;;;;;;;1.40;85.99;96129.22;6268738;28;20049;-70
2023/12/04 13:21:21;;;;;;;4.65;3.05;;;;;;;1.35;86.17;96119.88;6269530;28;20045;-70
2023/12/04 13:24:25;;;;;;;6.88;4.22;;;;;;;1.41;86.41;96120.53;6267974;28;20045;-70
2023/12/04 13:27:28;;;;;;;6.47;4.03;;;;;;;1.30;86.45;96119.25;6268478;28;20135;-70
2023/12/04 13:30:34;;;;;;;7.90;4.72;;;;;;;1.39;86.21;96118.03;6268721;28;20641;-71
2023/12/04 13:33:39;;;;;;;5.70;3.63;;;;;;;1.46;86.35;96119.44;6268721;28;20530;-72
2023/12/04 13:36:42;;;;;;;5.78;3.10;;;;;;;1.37;86.67;96103.44;6269081;28;20049;-72
2023/12/04 13:39:47;;;;;;;2.97;2.03;;;;;;;1.37;87.04;96087.88;6267176;28;20049;-72
2023/12/04 13:46:18;;;;;;;5.18;3.70;;;;;;;1.46;87.03;96109.06;6268938;28;20044;-73
2023/12/04 13:49:21;;;;;;;;;;;;;;;1.85;87.11;96104.91;6268907;28;20352;-72
2023/12/04 13:52:29;;;;;;;4.60;3.22;;;;;;;1.77;86.96;96100.03;6264129;28;19927;-72
2023/12/04 13:56:12;;;;;;;3.03;2.13;;;;;;;1.63;87.46;96087.63;6243988;28;20582;-72
2023/12/04 13:59:21;;;;;;;5.03;2.80;;;;;;;1.68;87.59;96103.84;6243448;28;20052;-71
2023/12/04 14:02:31;;;;;;;11.43;3.60;;;;;;;1.73;87.67;96107.09;6244018;28;20040;-71
2023/12/04 14:05:34;;;;;;;7.07;3.75;;;;;;;1.69;88.08;96100.34;6241595;28;20049;-72
2023/12/04 14:08:45;;;;;;;4.82;3.00;;;;;;;1.81;88.07;96114.53;6243821;28;20540;-72
2023/12/04 14:11:47;;;;;;;2.25;1.58;;;;;;;2.02;87.68;96107.59;6242773;28;20084;-72
2023/12/04 14:14:57;;;;;;;1.63;1.30;;;;;;;2.14;86.95;96088.06;6242696;28;20048;-72
2023/12/04 14:18:04;;;;;;;3.80;2.58;;;;;;;2.06;87.17;96088.38;6247423;28;20061;-71
2023/12/04 14:21:06;;;;;;;4.78;2.78;;;;;;;1.98;87.17;96090.47;6245818;28;20061;-72
2023/12/04 14:24:07;;;;;;;3.45;2.72;;;;;;;1.99;87.82;96076.59;6247658;28;20183;-71
2023/12/04 14:27:09;;;;;;;3.38;2.40;;;;;;;1.86;88.03;96075.44;6247476;28;20041;-71
2023/12/04 14:30:13;;;;;;;4.38;2.55;;;;;;;1.95;87.89;96080.22;6248138;28;20148;-73
2023/12/04 14:33:20;;;;;;;3.42;2.92;;;;;;;1.86;88.19;96080.63;6248285;28;20132;-71
2023/12/04 14:36:31;;;;;;;3.65;3.17;;;;;;;1.84;88.17;96088.50;6248346;28;20049;-72